Terminal Aerodrome Forecast
Issued by NWS

Home | Current Version | Previous Version | Text Only | Print | Product List | Glossary On
Versions: 1 2 3 4 5 6 7 8 9 10 11 12 13 14 15 16 17 18 19 20 21
000
FTUS41 KILN 111700
TAFLUK
TAF
KLUK 111721Z 1118/1218 00000KT P6SM SCT060
     FM120100 00000KT P6SM SCT250
     FM120700 00000KT 4SM BR SCT250
      TEMPO 1209/1211 2SM BR
     FM121500 22005KT P6SM SCT050 BKN120=

USA.gov is the U.S. government's official web portal to all federal, state and local government web resources and services.